sensor_id;sensor_type;location;lat;lon;timestamp;pressure;altitude;pressure_sealevel;temperature;humidity
21980;BME280;11154;48.558;9.234;2023-05-19T00:01:16;97971.69;;;15.91;67.08
21980;BME280;11154;48.558;9.234;2023-05-19T00:03:19;97959.09;;;15.92;67.18
21980;BME280;11154;48.558;9.234;2023-05-19T00:05:22;97965.47;;;15.91;66.92
21980;BME280;11154;48.558;9.234;2023-05-19T00:07:28;97961.13;;;15.90;66.93
21980;BME280;11154;48.558;9.234;2023-05-19T00:09:31;97952.44;;;15.88;67.35
21980;BME280;11154;48.558;9.234;2023-05-19T00:11:33;97964.84;;;15.89;67.44
21980;BME280;11154;48.558;9.234;2023-05-19T00:13:35;97956.13;;;15.87;67.04
21980;BME280;11154;48.558;9.234;2023-05-19T00:15:38;97960.50;;;15.88;67.00
21980;BME280;11154;48.558;9.234;2023-05-19T00:17:40;97955.75;;;15.90;66.83
21980;BME280;11154;48.558;9.234;2023-05-19T00:19:43;97955.75;;;15.90;66.08
21980;BME280;11154;48.558;9.234;2023-05-19T00:21:45;97952.06;;;15.91;66.49
21980;BME280;11154;48.558;9.234;2023-05-19T00:23:47;97946.69;;;15.91;66.73
21980;BME280;11154;48.558;9.234;2023-05-19T00:25:49;97948.56;;;15.90;66.65
21980;BME280;11154;48.558;9.234;2023-05-19T00:27:51;97944.41;;;15.88;66.50
21980;BME280;11154;48.558;9.234;2023-05-19T00:29:53;97945.41;;;15.87;66.36
21980;BME280;11154;48.558;9.234;2023-05-19T00:31:55;97956.50;;;15.84;66.55
21980;BME280;11154;48.558;9.234;2023-05-19T00:33:57;97940.03;;;15.87;66.66
21980;BME280;11154;48.558;9.234;2023-05-19T00:36:00;97947.63;;;15.84;66.69
21980;BME280;11154;48.558;9.234;2023-05-19T00:38:02;97937.72;;;15.84;65.93
21980;BME280;11154;48.558;9.234;2023-05-19T00:40:05;97941.41;;;15.83;66.17
21980;BME280;11154;48.558;9.234;2023-05-19T00:42:07;97940.41;;;15.84;66.27
21980;BME280;11154;48.558;9.234;2023-05-19T00:44:09;97933.38;;;15.83;66.17
21980;BME280;11154;48.558;9.234;2023-05-19T00:46:11;97937.09;;;15.82;66.47
21980;BME280;11154;48.558;9.234;2023-05-19T00:48:12;97937.91;;;15.83;66.41
21980;BME280;11154;48.558;9.234;2023-05-19T00:50:14;97947.63;;;15.84;67.01
21980;BME280;11154;48.558;9.234;2023-05-19T00:52:17;97945.28;;;15.81;66.47
21980;BME280;11154;48.558;9.234;2023-05-19T00:54:19;97940.78;;;15.81;67.07
21980;BME280;11154;48.558;9.234;2023-05-19T00:56:21;97937.09;;;15.82;67.22
21980;BME280;11154;48.558;9.234;2023-05-19T00:58:24;97940.78;;;15.81;67.05
21980;BME280;11154;48.558;9.234;2023-05-19T01:00:29;97932.91;;;15.80;66.82
21980;BME280;11154;48.558;9.234;2023-05-19T01:02:31;97933.75;;;15.80;66.86
21980;BME280;11154;48.558;9.234;2023-05-19T01:04:35;97935.78;;;15.78;67.09
21980;BME280;11154;48.558;9.234;2023-05-19T01:06:37;97926.91;;;15.78;67.04
21980;BME280;11154;48.558;9.234;2023-05-19T01:08:40;97926.91;;;15.78;67.15
21980;BME280;11154;48.558;9.234;2023-05-19T01:10:42;97918.00;;;15.77;66.55
21980;BME280;11154;48.558;9.234;2023-05-19T01:12:43;97919.06;;;15.76;67.06
21980;BME280;11154;48.558;9.234;2023-05-19T01:14:45;97920.53;;;15.79;67.30
21980;BME280;11154;48.558;9.234;2023-05-19T01:16:50;97923.38;;;15.77;66.40
21980;BME280;11154;48.558;9.234;2023-05-19T01:18:59;97914.31;;;15.78;66.88
21980;BME280;11154;48.558;9.234;2023-05-19T01:21:19;97911.44;;;15.80;67.94
21980;BME280;11154;48.558;9.234;2023-05-19T01:23:32;97916.38;;;15.76;68.48
21980;BME280;11154;48.558;9.234;2023-05-19T01:26:08;97922.09;;;15.73;68.05
21980;BME280;11154;48.558;9.234;2023-05-19T01:28:29;97923.09;;;15.72;67.07
21980;BME280;11154;48.558;9.234;2023-05-19T01:30:36;97930.13;;;15.73;67.53
21980;BME280;11154;48.558;9.234;2023-05-19T01:32:40;97932.81;;;15.73;67.55
21980;BME280;11154;48.558;9.234;2023-05-19T01:34:45;97932.00;;;15.73;69.33
21980;BME280;11154;48.558;9.234;2023-05-19T01:36:50;97934.00;;;15.71;69.90
21980;BME280;11154;48.558;9.234;2023-05-19T01:38:55;97940.78;;;15.67;70.39
21980;BME280;11154;48.558;9.234;2023-05-19T01:40:58;97939.63;;;15.61;70.88
21980;BME280;11154;48.558;9.234;2023-05-19T01:43:01;97938.78;;;15.61;70.94
21980;BME280;11154;48.558;9.234;2023-05-19T01:45:04;97943.53;;;15.59;70.17
21980;BME280;11154;48.558;9.234;2023-05-19T01:47:11;97942.13;;;15.63;70.41
21980;BME280;11154;48.558;9.234;2023-05-19T01:49:13;97933.75;;;15.66;70.30
21980;BME280;11154;48.558;9.234;2023-05-19T01:51:14;97940.56;;;15.68;70.42
21980;BME280;11154;48.558;9.234;2023-05-19T01:53:16;97936.22;;;15.67;69.89
21980;BME280;11154;48.558;9.234;2023-05-19T01:55:18;97926.50;;;15.66;70.10
21980;BME280;11154;48.558;9.234;2023-05-19T01:57:29;97928.19;;;15.67;69.93
21980;BME280;11154;48.558;9.234;2023-05-19T01:59:41;97926.50;;;15.66;70.01
21980;BME280;11154;48.558;9.234;2023-05-19T02:01:51;97926.50;;;15.66;69.96
21980;BME280;11154;48.558;9.234;2023-05-19T02:04:10;97923.84;;;15.66;70.44
21980;BME280;11154;48.558;9.234;2023-05-19T02:06:22;97924.38;;;15.62;71.18
21980;BME280;11154;48.558;9.234;2023-05-19T02:08:29;97918.53;;;15.58;70.66
21980;BME280;11154;48.558;9.234;2023-05-19T02:10:36;97922.06;;;15.59;70.25
21980;BME280;11154;48.558;9.234;2023-05-19T02:12:39;97923.28;;;15.56;69.61
21980;BME280;11154;48.558;9.234;2023-05-19T02:14:46;97923.28;;;15.56;69.12
21980;BME280;11154;48.558;9.234;2023-05-19T02:16:50;97916.25;;;15.55;69.06
21980;BME280;11154;48.558;9.234;2023-05-19T02:18:53;97922.44;;;15.56;69.07
21980;BME280;11154;48.558;9.234;2023-05-19T02:20:57;97925.09;;;15.56;68.95
21980;BME280;11154;48.558;9.234;2023-05-19T02:22:58;97930.66;;;15.54;69.57
21980;BME280;11154;48.558;9.234;2023-05-19T02:25:00;97929.00;;;15.53;70.96
21980;BME280;11154;48.558;9.234;2023-05-19T02:27:02;97934.72;;;15.50;71.54
21980;BME280;11154;48.558;9.234;2023-05-19T02:29:04;97921.00;;;15.45;71.72
21980;BME280;11154;48.558;9.234;2023-05-19T02:31:05;97925.56;;;15.45;70.37
21980;BME280;11154;48.558;9.234;2023-05-19T02:33:09;97916.69;;;15.44;71.17
21980;BME280;11154;48.558;9.234;2023-05-19T02:35:11;97921.00;;;15.45;71.35
21980;BME280;11154;48.558;9.234;2023-05-19T02:37:14;97922.06;;;15.44;70.90
21980;BME280;11154;48.558;9.234;2023-05-19T02:39:17;97918.72;;;15.42;71.02
21980;BME280;11154;48.558;9.234;2023-05-19T02:41:18;97912.50;;;15.42;70.71
21980;BME280;11154;48.558;9.234;2023-05-19T02:43:21;97914.16;;;15.43;70.74
21980;BME280;11154;48.558;9.234;2023-05-19T02:45:22;97912.69;;;15.40;68.85
21980;BME280;11154;48.558;9.234;2023-05-19T02:47:24;97914.38;;;15.41;68.87
21980;BME280;11154;48.558;9.234;2023-05-19T02:49:26;97916.22;;;15.41;68.67
21980;BME280;11154;48.558;9.234;2023-05-19T02:51:30;97913.06;;;15.37;68.78
21980;BME280;11154;48.558;9.234;2023-05-19T02:53:32;97907.88;;;15.36;68.82
21980;BME280;11154;48.558;9.234;2023-05-19T02:55:34;97908.72;;;15.36;68.46
21980;BME280;11154;48.558;9.234;2023-05-19T02:57:36;97920.72;;;15.40;68.76
21980;BME280;11154;48.558;9.234;2023-05-19T02:59:38;97910.00;;;15.40;68.24
21980;BME280;11154;48.558;9.234;2023-05-19T03:01:40;97906.31;;;15.41;68.52
21980;BME280;11154;48.558;9.234;2023-05-19T03:03:41;97912.03;;;15.38;68.43
21980;BME280;11154;48.558;9.234;2023-05-19T03:05:43;97912.03;;;15.38;68.83
21980;BME280;11154;48.558;9.234;2023-05-19T03:07:45;97908.72;;;15.36;69.16
21980;BME280;11154;48.558;9.234;2023-05-19T03:09:48;97908.91;;;15.35;69.33
21980;BME280;11154;48.558;9.234;2023-05-19T03:11:49;97905.38;;;15.34;69.49
21980;BME280;11154;48.558;9.234;2023-05-19T03:13:51;97903.72;;;15.33;69.76
21980;BME280;11154;48.558;9.234;2023-05-19T03:15:53;97912.94;;;15.31;69.63
21980;BME280;11154;48.558;9.234;2023-05-19T03:17:56;97913.13;;;15.29;69.57
21980;BME280;11154;48.558;9.234;2023-05-19T03:19:58;97904.44;;;15.27;69.54
21980;BME280;11154;48.558;9.234;2023-05-19T03:21:59;97915.16;;;15.27;69.62
21980;BME280;11154;48.558;9.234;2023-05-19T03:24:01;97916.16;;;15.26;69.73
21980;BME280;11154;48.558;9.234;2023-05-19T03:26:04;97910.19;;;15.24;69.67
21980;BME280;11154;48.558;9.234;2023-05-19T03:28:05;97903.97;;;15.24;69.80
21980;BME280;11154;48.558;9.234;2023-05-19T03:30:08;97906.66;;;15.24;70.03
21980;BME280;11154;48.558;9.234;2023-05-19T03:32:10;97922.72;;;15.24;70.31
21980;BME280;11154;48.558;9.234;2023-05-19T03:34:12;97917.56;;;15.22;70.57
21980;BME280;11154;48.558;9.234;2023-05-19T03:36:13;97915.75;;;15.15;70.92
21980;BME280;11154;48.558;9.234;2023-05-19T03:38:15;97913.59;;;15.11;71.17
21980;BME280;11154;48.558;9.234;2023-05-19T03:40:16;97914.81;;;15.08;71.12
21980;BME280;11154;48.558;9.234;2023-05-19T03:42:19;97917.63;;;15.07;71.20
21980;BME280;11154;48.558;9.234;2023-05-19T03:44:21;97923.00;;;15.07;71.14
21980;BME280;11154;48.558;9.234;2023-05-19T03:46:23;97925.66;;;15.07;71.26
21980;BME280;11154;48.558;9.234;2023-05-19T03:48:25;97913.31;;;15.06;71.18
21980;BME280;11154;48.558;9.234;2023-05-19T03:50:26;97918.00;;;15.04;71.42
21980;BME280;11154;48.558;9.234;2023-05-19T03:52:30;97918.00;;;15.04;71.81
21980;BME280;11154;48.558;9.234;2023-05-19T03:54:32;97927.06;;;15.03;71.79
21980;BME280;11154;48.558;9.234;2023-05-19T03:56:37;97920.88;;;15.02;72.02
21980;BME280;11154;48.558;9.234;2023-05-19T03:58:41;97920.22;;;15.00;72.13
21980;BME280;11154;48.558;9.234;2023-05-19T04:00:44;97923.06;;;14.99;72.17
21980;BME280;11154;48.558;9.234;2023-05-19T04:02:45;97914.38;;;14.97;72.41
21980;BME280;11154;48.558;9.234;2023-05-19T04:04:47;97918.06;;;14.96;72.52
21980;BME280;11154;48.558;9.234;2023-05-19T04:06:49;97919.25;;;14.93;72.73
21980;BME280;11154;48.558;9.234;2023-05-19T04:08:51;97921.13;;;14.93;72.92
21980;BME280;11154;48.558;9.234;2023-05-19T04:10:52;97922.13;;;14.92;72.97
21980;BME280;11154;48.558;9.234;2023-05-19T04:12:54;97919.44;;;14.92;73.05
21980;BME280;11154;48.558;9.234;2023-05-19T04:14:57;97912.41;;;14.91;72.77
21980;BME280;11154;48.558;9.234;2023-05-19T04:16:59;97919.06;;;14.95;72.97
21980;BME280;11154;48.558;9.234;2023-05-19T04:19:00;97913.72;;;14.95;72.77
21980;BME280;11154;48.558;9.234;2023-05-19T04:21:02;97918.91;;;14.96;72.87
21980;BME280;11154;48.558;9.234;2023-05-19T04:23:04;97921.41;;;14.98;72.66
21980;BME280;11154;48.558;9.234;2023-05-19T04:25:06;97925.75;;;14.99;72.18
21980;BME280;11154;48.558;9.234;2023-05-19T04:27:08;97920.41;;;14.99;72.17
21980;BME280;11154;48.558;9.234;2023-05-19T04:29:11;97922.91;;;15.00;72.08
21980;BME280;11154;48.558;9.234;2023-05-19T04:31:14;97921.22;;;14.99;72.20
21980;BME280;11154;48.558;9.234;2023-05-19T04:33:16;97918.34;;;15.01;72.05
21980;BME280;11154;48.558;9.234;2023-05-19T04:35:19;97919.41;;;15.00;72.05
21980;BME280;11154;48.558;9.234;2023-05-19T04:37:21;97916.34;;;15.03;72.27
21980;BME280;11154;48.558;9.234;2023-05-19T04:39:23;97925.03;;;15.05;71.89
21980;BME280;11154;48.558;9.234;2023-05-19T04:41:25;97923.00;;;15.07;71.74
21980;BME280;11154;48.558;9.234;2023-05-19T04:43:26;97921.16;;;15.07;71.82
21980;BME280;11154;48.558;9.234;2023-05-19T04:45:28;97917.28;;;15.10;71.77
21980;BME280;11154;48.558;9.234;2023-05-19T04:47:33;97923.13;;;15.13;71.81
21980;BME280;11154;48.558;9.234;2023-05-19T04:49:37;97924.13;;;15.12;71.37
21980;BME280;11154;48.558;9.234;2023-05-19T04:51:39;97924.13;;;15.12;71.69
21980;BME280;11154;48.558;9.234;2023-05-19T04:53:40;97926.47;;;15.15;71.78
21980;BME280;11154;48.558;9.234;2023-05-19T04:55:42;97930.97;;;15.14;71.55
21980;BME280;11154;48.558;9.234;2023-05-19T04:57:44;97918.59;;;15.13;71.87
21980;BME280;11154;48.558;9.234;2023-05-19T04:59:46;97917.56;;;15.14;71.64
21980;BME280;11154;48.558;9.234;2023-05-19T05:01:48;97921.44;;;15.12;71.75
21980;BME280;11154;48.558;9.234;2023-05-19T05:03:51;97921.66;;;15.11;71.76
21980;BME280;11154;48.558;9.234;2023-05-19T05:05:54;97919.97;;;15.10;72.31
21980;BME280;11154;48.558;9.234;2023-05-19T05:07:55;97929.00;;;15.09;72.52
21980;BME280;11154;48.558;9.234;2023-05-19T05:09:57;97920.63;;;15.12;73.04
21980;BME280;11154;48.558;9.234;2023-05-19T05:12:00;97936.03;;;15.10;72.87
21980;BME280;11154;48.558;9.234;2023-05-19T05:14:02;97923.66;;;15.09;72.70
21980;BME280;11154;48.558;9.234;2023-05-19T05:16:04;97927.81;;;15.11;72.77
21980;BME280;11154;48.558;9.234;2023-05-19T05:18:08;97928.59;;;15.19;73.30
21980;BME280;11154;48.558;9.234;2023-05-19T05:20:12;97935.47;;;15.22;72.58
21980;BME280;11154;48.558;9.234;2023-05-19T05:22:15;97931.25;;;15.19;72.29
21980;BME280;11154;48.558;9.234;2023-05-19T05:24:17;97929.63;;;15.18;71.98
21980;BME280;11154;48.558;9.234;2023-05-19T05:26:20;97923.22;;;15.19;72.31
21980;BME280;11154;48.558;9.234;2023-05-19T05:28:22;97922.38;;;15.27;72.51
21980;BME280;11154;48.558;9.234;2023-05-19T05:30:24;97928.59;;;15.19;71.34
21980;BME280;11154;48.558;9.234;2023-05-19T05:32:25;97921.22;;;15.21;71.59
21980;BME280;11154;48.558;9.234;2023-05-19T05:34:27;97921.72;;;15.25;71.44
21980;BME280;11154;48.558;9.234;2023-05-19T05:36:30;97922.56;;;15.25;71.70
21980;BME280;11154;48.558;9.234;2023-05-19T05:38:34;97920.81;;;15.32;71.83
21980;BME280;11154;48.558;9.234;2023-05-19T05:40:36;97919.78;;;15.33;70.98
21980;BME280;11154;48.558;9.234;2023-05-19T05:42:37;97920.25;;;15.37;71.14
21980;BME280;11154;48.558;9.234;2023-05-19T05:44:39;97925.16;;;15.33;70.22
21980;BME280;11154;48.558;9.234;2023-05-19T05:46:41;97922.75;;;15.38;70.59
21980;BME280;11154;48.558;9.234;2023-05-19T05:48:43;97925.28;;;15.40;70.00
21980;BME280;11154;48.558;9.234;2023-05-19T05:50:47;97928.44;;;15.43;70.36
21980;BME280;11154;48.558;9.234;2023-05-19T05:52:51;97932.13;;;15.42;69.97
21980;BME280;11154;48.558;9.234;2023-05-19T05:54:54;97931.72;;;15.45;70.53
21980;BME280;11154;48.558;9.234;2023-05-19T05:56:56;97926.56;;;15.44;69.87
21980;BME280;11154;48.558;9.234;2023-05-19T05:58:58;97924.44;;;15.39;69.76
21980;BME280;11154;48.558;9.234;2023-05-19T06:01:00;97927.75;;;15.41;70.01
21980;BME280;11154;48.558;9.234;2023-05-19T06:03:02;97928.22;;;15.45;69.66
21980;BME280;11154;48.558;9.234;2023-05-19T06:05:05;97926.38;;;15.45;70.71
21980;BME280;11154;48.558;9.234;2023-05-19T06:07:07;97932.22;;;15.49;70.99
21980;BME280;11154;48.558;9.234;2023-05-19T06:09:10;97922.16;;;15.51;70.12
21980;BME280;11154;48.558;9.234;2023-05-19T06:11:11;97932.53;;;15.54;70.30
21980;BME280;11154;48.558;9.234;2023-05-19T06:13:13;97924.63;;;15.52;69.69
21980;BME280;11154;48.558;9.234;2023-05-19T06:15:17;97920.59;;;15.56;70.16
21980;BME280;11154;48.558;9.234;2023-05-19T06:17:18;97928.63;;;15.56;70.12
21980;BME280;11154;48.558;9.234;2023-05-19T06:19:20;97920.41;;;15.58;70.28
21980;BME280;11154;48.558;9.234;2023-05-19T06:21:24;97921.88;;;15.60;70.65
21980;BME280;11154;48.558;9.234;2023-05-19T06:23:26;97926.44;;;15.60;70.08
21980;BME280;11154;48.558;9.234;2023-05-19T06:25:29;97918.38;;;15.60;70.05
21980;BME280;11154;48.558;9.234;2023-05-19T06:27:31;97916.53;;;15.60;69.40
21980;BME280;11154;48.558;9.234;2023-05-19T06:29:32;97920.88;;;15.61;70.19
21980;BME280;11154;48.558;9.234;2023-05-19T06:31:34;97918.84;;;15.63;70.84
21980;BME280;11154;48.558;9.234;2023-05-19T06:33:36;97922.16;;;15.65;70.18
21980;BME280;11154;48.558;9.234;2023-05-19T06:35:37;97919.31;;;15.67;70.35
21980;BME280;11154;48.558;9.234;2023-05-19T06:37:39;97921.16;;;15.66;70.65
21980;BME280;11154;48.558;9.234;2023-05-19T06:39:40;97919.13;;;15.68;70.41
21980;BME280;11154;48.558;9.234;2023-05-19T06:41:43;97920.22;;;15.74;70.46
21980;BME280;11154;48.558;9.234;2023-05-19T06:43:45;97912.03;;;15.75;70.77
21980;BME280;11154;48.558;9.234;2023-05-19T06:45:46;97923.47;;;15.69;69.47
21980;BME280;11154;48.558;9.234;2023-05-19T06:47:48;97918.19;;;15.76;70.02
21980;BME280;11154;48.558;9.234;2023-05-19T06:49:50;97927.09;;;15.76;68.35
21980;BME280;11154;48.558;9.234;2023-05-19T06:51:54;97921.63;;;15.70;67.87
21980;BME280;11154;48.558;9.234;2023-05-19T06:53:55;97921.28;;;15.73;66.64
21980;BME280;11154;48.558;9.234;2023-05-19T06:55:57;97921.06;;;15.74;66.79
21980;BME280;11154;48.558;9.234;2023-05-19T06:58:00;97920.53;;;15.79;67.03
21980;BME280;11154;48.558;9.234;2023-05-19T07:00:02;97915.91;;;15.87;68.04
21980;BME280;11154;48.558;9.234;2023-05-19T07:02:07;97931.06;;;15.80;65.40
21980;BME280;11154;48.558;9.234;2023-05-19T07:04:09;97935.50;;;15.88;66.40
21980;BME280;11154;48.558;9.234;2023-05-19T07:06:10;97928.56;;;15.93;66.19
21980;BME280;11154;48.558;9.234;2023-05-19T07:08:12;97922.94;;;15.88;65.62
21980;BME280;11154;48.558;9.234;2023-05-19T07:10:14;97923.94;;;15.87;65.80
21980;BME280;11154;48.558;9.234;2023-05-19T07:12:16;97927.53;;;15.80;64.99
21980;BME280;11154;48.558;9.234;2023-05-19T07:14:19;97921.72;;;15.76;64.91
21980;BME280;11154;48.558;9.234;2023-05-19T07:16:20;97920.88;;;15.76;65.07
21980;BME280;11154;48.558;9.234;2023-05-19T07:18:22;97916.66;;;15.81;65.75
21980;BME280;11154;48.558;9.234;2023-05-19T07:20:24;97918.94;;;15.84;66.53
21980;BME280;11154;48.558;9.234;2023-05-19T07:22:26;97924.31;;;15.84;66.35
21980;BME280;11154;48.558;9.234;2023-05-19T07:24:27;97921.28;;;15.87;65.64
21980;BME280;11154;48.558;9.234;2023-05-19T07:26:30;97909.53;;;15.88;65.94
21980;BME280;11154;48.558;9.234;2023-05-19T07:28:31;97916.56;;;15.89;66.14
21980;BME280;11154;48.558;9.234;2023-05-19T07:30:36;97915.81;;;15.95;67.04
21980;BME280;11154;48.558;9.234;2023-05-19T07:32:38;97918.78;;;16.00;67.41
21980;BME280;11154;48.558;9.234;2023-05-19T07:34:39;97913.41;;;16.00;66.25
21980;BME280;11154;48.558;9.234;2023-05-19T07:36:41;97904.72;;;15.98;67.57
21980;BME280;11154;48.558;9.234;2023-05-19T07:38:44;97913.41;;;16.00;67.70
21980;BME280;11154;48.558;9.234;2023-05-19T07:40:46;97912.22;;;16.02;67.84
21980;BME280;11154;48.558;9.234;2023-05-19T07:42:48;97915.69;;;16.03;67.66
21980;BME280;11154;48.558;9.234;2023-05-19T07:44:50;97911.94;;;15.97;67.82
21980;BME280;11154;48.558;9.234;2023-05-19T07:46:53;97915.09;;;16.01;67.78
21980;BME280;11154;48.558;9.234;2023-05-19T07:48:55;97914.22;;;16.00;67.59
21980;BME280;11154;48.558;9.234;2023-05-19T07:50:57;97922.75;;;16.04;67.22
21980;BME280;11154;48.558;9.234;2023-05-19T07:52:58;97925.81;;;16.01;67.16
21980;BME280;11154;48.558;9.234;2023-05-19T07:55:00;97918.38;;;16.03;67.85
21980;BME280;11154;48.558;9.234;2023-05-19T07:57:02;97915.09;;;16.01;67.46
21980;BME280;11154;48.558;9.234;2023-05-19T07:59:04;97920.72;;;16.06;67.73
21980;BME280;11154;48.558;9.234;2023-05-19T08:01:07;97907.31;;;16.06;67.91
21980;BME280;11154;48.558;9.234;2023-05-19T08:03:10;97911.75;;;15.99;67.37
21980;BME280;11154;48.558;9.234;2023-05-19T08:05:12;97907.59;;;15.96;67.27
21980;BME280;11154;48.558;9.234;2023-05-19T08:07:14;97908.41;;;15.97;68.46
21980;BME280;11154;48.558;9.234;2023-05-19T08:09:15;97899.72;;;15.95;68.71
21980;BME280;11154;48.558;9.234;2023-05-19T08:11:18;97905.44;;;15.92;67.86
21980;BME280;11154;48.558;9.234;2023-05-19T08:13:20;97903.78;;;15.91;68.38
21980;BME280;11154;48.558;9.234;2023-05-19T08:15:22;97907.38;;;15.98;67.68
21980;BME280;11154;48.558;9.234;2023-05-19T08:17:24;97901.22;;;15.97;67.80
21980;BME280;11154;48.558;9.234;2023-05-19T08:19:27;97909.41;;;15.96;67.15
21980;BME280;11154;48.558;9.234;2023-05-19T08:21:29;97903.22;;;15.95;67.49
21980;BME280;11154;48.558;9.234;2023-05-19T08:23:33;97904.97;;;16.03;67.80
21980;BME280;11154;48.558;9.234;2023-05-19T08:25:36;97897.19;;;16.22;67.42
21980;BME280;11154;48.558;9.234;2023-05-19T08:27:38;97897.75;;;16.32;67.15
21980;BME280;11154;48.558;9.234;2023-05-19T08:29:39;97890.25;;;16.28;66.46
21980;BME280;11154;48.558;9.234;2023-05-19T08:31:41;97893.88;;;16.20;66.27
21980;BME280;11154;48.558;9.234;2023-05-19T08:33:42;97899.16;;;16.14;66.68
21980;BME280;11154;48.558;9.234;2023-05-19T08:35:46;97891.75;;;16.16;67.42
21980;BME280;11154;48.558;9.234;2023-05-19T08:37:48;97888.59;;;16.12;67.47
21980;BME280;11154;48.558;9.234;2023-05-19T08:39:50;97880.09;;;16.09;67.30
21980;BME280;11154;48.558;9.234;2023-05-19T08:41:52;97888.31;;;16.07;67.65
21980;BME280;11154;48.558;9.234;2023-05-19T08:43:54;97882.50;;;16.04;67.90
21980;BME280;11154;48.558;9.234;2023-05-19T08:45:59;97882.88;;;16.01;67.70
21980;BME280;11154;48.558;9.234;2023-05-19T08:48:01;97883.50;;;16.03;67.84
21980;BME280;11154;48.558;9.234;2023-05-19T08:50:04;97893.97;;;15.98;67.48
21980;BME280;11154;48.558;9.234;2023-05-19T08:52:16;97889.28;;;16.00;67.38
21980;BME280;11154;48.558;9.234;2023-05-19T08:54:24;97890.94;;;16.01;67.94
21980;BME280;11154;48.558;9.234;2023-05-19T08:56:30;97893.22;;;16.04;68.14
21980;BME280;11154;48.558;9.234;2023-05-19T08:58:32;97889.34;;;16.06;67.99
21980;BME280;11154;48.558;9.234;2023-05-19T09:00:34;97884.16;;;16.05;67.23
21980;BME280;11154;48.558;9.234;2023-05-19T09:02:37;97888.88;;;16.03;66.60
21980;BME280;11154;48.558;9.234;2023-05-19T09:04:39;97882.47;;;16.18;67.01
21980;BME280;11154;48.558;9.234;2023-05-19T09:06:45;97878.16;;;16.17;67.24
21980;BME280;11154;48.558;9.234;2023-05-19T09:08:48;97885.56;;;16.15;66.59
21980;BME280;11154;48.558;9.234;2023-05-19T09:10:50;97880.19;;;16.15;66.80
21980;BME280;11154;48.558;9.234;2023-05-19T09:12:52;97880.38;;;16.14;67.17
21980;BME280;11154;48.558;9.234;2023-05-19T09:14:54;97872.50;;;16.12;67.18
21980;BME280;11154;48.558;9.234;2023-05-19T09:16:57;97885.44;;;16.09;66.99
21980;BME280;11154;48.558;9.234;2023-05-19T09:18:58;97877.03;;;16.12;67.28
21980;BME280;11154;48.558;9.234;2023-05-19T09:21:01;97881.75;;;16.10;67.47
21980;BME280;11154;48.558;9.234;2023-05-19T09:23:02;97882.13;;;16.07;66.91
21980;BME280;11154;48.558;9.234;2023-05-19T09:25:16;97887.78;;;16.12;66.61
21980;BME280;11154;48.558;9.234;2023-05-19T09:27:20;97875.94;;;16.21;67.41
21980;BME280;11154;48.558;9.234;2023-05-19T09:29:23;97885.16;;;16.18;66.75
21980;BME280;11154;48.558;9.234;2023-05-19T09:31:30;97876.84;;;16.28;67.56
21980;BME280;11154;48.558;9.234;2023-05-19T09:33:33;97875.38;;;16.40;68.40
21980;BME280;11154;48.558;9.234;2023-05-19T09:35:35;97869.03;;;16.47;68.04
21980;BME280;11154;48.558;9.234;2023-05-19T09:37:38;97875.78;;;16.43;66.75
21980;BME280;11154;48.558;9.234;2023-05-19T09:39:43;97881.09;;;16.37;65.73
21980;BME280;11154;48.558;9.234;2023-05-19T09:41:51;97874.72;;;16.23;65.30
21980;BME280;11154;48.558;9.234;2023-05-19T09:43:54;97874.00;;;16.29;66.11
21980;BME280;11154;48.558;9.234;2023-05-19T09:45:58;97877.44;;;16.59;66.71
21980;BME280;11154;48.558;9.234;2023-05-19T09:48:02;97874.00;;;16.85;64.46
21980;BME280;11154;48.558;9.234;2023-05-19T09:50:08;97869.19;;;17.02;64.02
21980;BME280;11154;48.558;9.234;2023-05-19T09:52:10;97873.19;;;17.06;63.21
21980;BME280;11154;48.558;9.234;2023-05-19T09:54:16;97874.25;;;17.11;62.97
21980;BME280;11154;48.558;9.234;2023-05-19T09:56:18;97868.50;;;17.14;62.90
21980;BME280;11154;48.558;9.234;2023-05-19T09:58:24;97872.66;;;17.17;63.45
21980;BME280;11154;48.558;9.234;2023-05-19T10:00:28;97869.63;;;17.05;62.95
21980;BME280;11154;48.558;9.234;2023-05-19T10:02:30;97872.34;;;16.84;63.52
21980;BME280;11154;48.558;9.234;2023-05-19T10:04:33;97864.28;;;16.63;63.57
21980;BME280;11154;48.558;9.234;2023-05-19T10:06:35;97867.47;;;16.53;64.71
21980;BME280;11154;48.558;9.234;2023-05-19T10:08:38;97866.63;;;16.52;65.47
21980;BME280;11154;48.558;9.234;2023-05-19T10:10:41;97868.38;;;16.45;64.79
21980;BME280;11154;48.558;9.234;2023-05-19T10:12:44;97877.66;;;16.43;65.78
21980;BME280;11154;48.558;9.234;2023-05-19T10:14:47;97878.41;;;16.37;64.84
21980;BME280;11154;48.558;9.234;2023-05-19T10:16:50;97877.59;;;16.36;65.39
21980;BME280;11154;48.558;9.234;2023-05-19T10:18:54;97882.31;;;16.34;65.72
21980;BME280;11154;48.558;9.234;2023-05-19T10:20:57;97881.34;;;16.42;66.26
21980;BME280;11154;48.558;9.234;2023-05-19T10:23:00;97880.44;;;16.35;65.03
21980;BME280;11154;48.558;9.234;2023-05-19T10:25:03;97880.44;;;16.35;65.36
21980;BME280;11154;48.558;9.234;2023-05-19T10:27:09;97876.84;;;16.42;66.62
21980;BME280;11154;48.558;9.234;2023-05-19T10:29:14;97872.84;;;16.38;64.34
21980;BME280;11154;48.558;9.234;2023-05-19T10:31:20;97878.13;;;16.46;64.09
21980;BME280;11154;48.558;9.234;2023-05-19T10:33:29;97871.16;;;16.52;64.08
21980;BME280;11154;48.558;9.234;2023-05-19T10:35:58;97868.28;;;16.53;63.47
21980;BME280;11154;48.558;9.234;2023-05-19T10:38:14;97872.91;;;16.59;64.52
21980;BME280;11154;48.558;9.234;2023-05-19T10:40:20;97872.06;;;16.59;63.55
21980;BME280;11154;48.558;9.234;2023-05-19T10:42:34;97874.09;;;16.57;64.12
21980;BME280;11154;48.558;9.234;2023-05-19T10:44:45;97873.44;;;16.55;63.99
21980;BME280;11154;48.558;9.234;2023-05-19T10:46:55;97867.84;;;16.50;64.42
21980;BME280;11154;48.558;9.234;2023-05-19T10:48:56;97878.38;;;16.51;64.16
21980;BME280;11154;48.558;9.234;2023-05-19T10:50:58;97872.38;;;16.49;63.56
21980;BME280;11154;48.558;9.234;2023-05-19T10:53:01;97867.84;;;16.50;63.33